sensor_id;sensor_type;location;lat;lon;timestamp;P1;durP1;ratioP1;P2;durP2;ratioP2
46090;SDS011;31826;53.572;10.170;2022-11-23T00:00:00;45.80;;;19.73;;
46090;SDS011;31826;53.572;10.170;2022-11-23T00:02:27;47.38;;;19.65;;
46090;SDS011;31826;53.572;10.170;2022-11-23T00:04:53;48.87;;;19.07;;
46090;SDS011;31826;53.572;10.170;2022-11-23T00:07:19;48.67;;;19.92;;
46090;SDS011;31826;53.572;10.170;2022-11-23T00:09:44;45.38;;;18.35;;
46090;SDS011;31826;53.572;10.170;2022-11-23T00:12:10;47.63;;;18.88;;
46090;SDS011;31826;53.572;10.170;2022-11-23T00:14:36;46.28;;;19.60;;
46090;SDS011;31826;53.572;10.170;2022-11-23T00:17:02;47.75;;;18.83;;
46090;SDS011;31826;53.572;10.170;2022-11-23T00:19:28;44.60;;;17.95;;
46090;SDS011;31826;53.572;10.170;2022-11-23T00:21:53;45.83;;;18.83;;
46090;SDS011;31826;53.572;10.170;2022-11-23T00:24:19;48.70;;;19.13;;
46090;SDS011;31826;53.572;10.170;2022-11-23T00:26:45;45.28;;;18.75;;
46090;SDS011;31826;53.572;10.170;2022-11-23T00:29:10;40.00;;;17.55;;
46090;SDS011;31826;53.572;10.170;2022-11-23T00:31:36;43.05;;;18.15;;
46090;SDS011;31826;53.572;10.170;2022-11-23T00:34:02;45.75;;;17.75;;
46090;SDS011;31826;53.572;10.170;2022-11-23T00:36:27;42.60;;;17.50;;
46090;SDS011;31826;53.572;10.170;2022-11-23T00:38:53;46.35;;;18.08;;
46090;SDS011;31826;53.572;10.170;2022-11-23T00:41:20;41.95;;;16.98;;
46090;SDS011;31826;53.572;10.170;2022-11-23T00:43:47;39.80;;;17.23;;
46090;SDS011;31826;53.572;10.170;2022-11-23T00:46:18;46.67;;;17.40;;
46090;SDS011;31826;53.572;10.170;2022-11-23T00:48:46;41.63;;;17.13;;
46090;SDS011;31826;53.572;10.170;2022-11-23T00:51:14;44.75;;;17.20;;
46090;SDS011;31826;53.572;10.170;2022-11-23T00:53:42;43.28;;;18.95;;
46090;SDS011;31826;53.572;10.170;2022-11-23T00:56:08;38.58;;;17.38;;
46090;SDS011;31826;53.572;10.170;2022-11-23T00:58:34;44.50;;;17.80;;
46090;SDS011;31826;53.572;10.170;2022-11-23T01:01:07;41.85;;;16.23;;
46090;SDS011;31826;53.572;10.170;2022-11-23T01:03:35;42.53;;;17.42;;
46090;SDS011;31826;53.572;10.170;2022-11-23T01:06:06;42.38;;;16.95;;
46090;SDS011;31826;53.572;10.170;2022-11-23T01:08:34;41.75;;;16.45;;
46090;SDS011;31826;53.572;10.170;2022-11-23T01:11:01;43.53;;;16.67;;
46090;SDS011;31826;53.572;10.170;2022-11-23T01:13:29;42.28;;;16.80;;
46090;SDS011;31826;53.572;10.170;2022-11-23T01:15:56;46.33;;;17.88;;
46090;SDS011;31826;53.572;10.170;2022-11-23T01:18:22;45.67;;;18.48;;
46090;SDS011;31826;53.572;10.170;2022-11-23T01:20:48;43.70;;;18.00;;
46090;SDS011;31826;53.572;10.170;2022-11-23T01:23:13;40.80;;;16.40;;
46090;SDS011;31826;53.572;10.170;2022-11-23T01:25:39;40.07;;;17.20;;
46090;SDS011;31826;53.572;10.170;2022-11-23T01:28:05;45.00;;;16.27;;
46090;SDS011;31826;53.572;10.170;2022-11-23T01:30:31;43.17;;;16.80;;
46090;SDS011;31826;53.572;10.170;2022-11-23T01:32:58;37.05;;;16.33;;
46090;SDS011;31826;53.572;10.170;2022-11-23T01:35:24;42.20;;;17.77;;
46090;SDS011;31826;53.572;10.170;2022-11-23T01:37:50;41.40;;;16.50;;
46090;SDS011;31826;53.572;10.170;2022-11-23T01:40:16;38.93;;;15.90;;
46090;SDS011;31826;53.572;10.170;2022-11-23T01:42:42;40.00;;;15.70;;
46090;SDS011;31826;53.572;10.170;2022-11-23T01:48:00;43.00;;;17.38;;
46090;SDS011;31826;53.572;10.170;2022-11-23T01:50:27;39.92;;;15.73;;
46090;SDS011;31826;53.572;10.170;2022-11-23T01:52:53;41.83;;;16.17;;
46090;SDS011;31826;53.572;10.170;2022-11-23T01:55:19;40.60;;;15.63;;
46090;SDS011;31826;53.572;10.170;2022-11-23T01:57:45;39.08;;;15.43;;
46090;SDS011;31826;53.572;10.170;2022-11-23T02:00:12;36.58;;;15.57;;
46090;SDS011;31826;53.572;10.170;2022-11-23T02:02:38;37.83;;;15.57;;
46090;SDS011;31826;53.572;10.170;2022-11-23T02:05:09;35.90;;;14.80;;
46090;SDS011;31826;53.572;10.170;2022-11-23T02:07:37;38.38;;;15.88;;
46090;SDS011;31826;53.572;10.170;2022-11-23T02:10:04;35.95;;;16.05;;
46090;SDS011;31826;53.572;10.170;2022-11-23T02:12:30;42.40;;;16.23;;
46090;SDS011;31826;53.572;10.170;2022-11-23T02:14:56;35.60;;;15.43;;
46090;SDS011;31826;53.572;10.170;2022-11-23T02:17:22;40.28;;;15.90;;
46090;SDS011;31826;53.572;10.170;2022-11-23T02:19:56;35.80;;;15.07;;
46090;SDS011;31826;53.572;10.170;2022-11-23T02:22:45;40.53;;;16.25;;
46090;SDS011;31826;53.572;10.170;2022-11-23T02:28:13;36.70;;;16.15;;
46090;SDS011;31826;53.572;10.170;2022-11-23T02:30:41;35.58;;;14.88;;
46090;SDS011;31826;53.572;10.170;2022-11-23T02:33:10;36.28;;;15.82;;
46090;SDS011;31826;53.572;10.170;2022-11-23T02:35:45;35.47;;;15.57;;
46090;SDS011;31826;53.572;10.170;2022-11-23T02:38:23;39.95;;;15.63;;
46090;SDS011;31826;53.572;10.170;2022-11-23T02:40:55;36.33;;;15.52;;
46090;SDS011;31826;53.572;10.170;2022-11-23T02:43:21;43.92;;;16.20;;
46090;SDS011;31826;53.572;10.170;2022-11-23T02:45:55;38.23;;;14.97;;
46090;SDS011;31826;53.572;10.170;2022-11-23T02:48:22;36.17;;;15.20;;
46090;SDS011;31826;53.572;10.170;2022-11-23T02:50:47;35.58;;;15.77;;
46090;SDS011;31826;53.572;10.170;2022-11-23T02:53:13;36.70;;;14.73;;
46090;SDS011;31826;53.572;10.170;2022-11-23T02:55:39;36.27;;;14.97;;
46090;SDS011;31826;53.572;10.170;2022-11-23T02:58:05;37.60;;;15.20;;
46090;SDS011;31826;53.572;10.170;2022-11-23T03:00:31;35.27;;;15.20;;
46090;SDS011;31826;53.572;10.170;2022-11-23T03:02:57;35.67;;;15.35;;
46090;SDS011;31826;53.572;10.170;2022-11-23T03:05:25;39.38;;;16.90;;
46090;SDS011;31826;53.572;10.170;2022-11-23T03:07:51;37.72;;;15.15;;
46090;SDS011;31826;53.572;10.170;2022-11-23T03:10:17;35.95;;;15.38;;
46090;SDS011;31826;53.572;10.170;2022-11-23T03:12:43;40.33;;;15.93;;
46090;SDS011;31826;53.572;10.170;2022-11-23T03:15:09;40.22;;;15.77;;
46090;SDS011;31826;53.572;10.170;2022-11-23T03:17:35;41.03;;;17.08;;
46090;SDS011;31826;53.572;10.170;2022-11-23T03:20:01;38.13;;;15.77;;
46090;SDS011;31826;53.572;10.170;2022-11-23T03:22:28;41.83;;;17.97;;
46090;SDS011;31826;53.572;10.170;2022-11-23T03:24:53;37.17;;;15.80;;
46090;SDS011;31826;53.572;10.170;2022-11-23T03:27:20;37.88;;;16.55;;
46090;SDS011;31826;53.572;10.170;2022-11-23T03:29:46;35.90;;;15.07;;
46090;SDS011;31826;53.572;10.170;2022-11-23T03:32:11;33.83;;;14.10;;
46090;SDS011;31826;53.572;10.170;2022-11-23T03:34:37;37.27;;;15.80;;
46090;SDS011;31826;53.572;10.170;2022-11-23T03:37:03;37.25;;;16.40;;
46090;SDS011;31826;53.572;10.170;2022-11-23T03:39:28;34.78;;;15.52;;
46090;SDS011;31826;53.572;10.170;2022-11-23T03:41:54;34.70;;;15.20;;
46090;SDS011;31826;53.572;10.170;2022-11-23T03:44:20;36.10;;;15.32;;
46090;SDS011;31826;53.572;10.170;2022-11-23T03:46:46;38.50;;;14.60;;
46090;SDS011;31826;53.572;10.170;2022-11-23T03:49:11;36.08;;;15.48;;
46090;SDS011;31826;53.572;10.170;2022-11-23T03:51:37;41.28;;;16.73;;
46090;SDS011;31826;53.572;10.170;2022-11-23T03:54:03;37.78;;;15.60;;
46090;SDS011;31826;53.572;10.170;2022-11-23T03:56:29;32.67;;;14.52;;
46090;SDS011;31826;53.572;10.170;2022-11-23T03:58:54;36.03;;;14.43;;
46090;SDS011;31826;53.572;10.170;2022-11-23T04:01:20;35.13;;;14.13;;
46090;SDS011;31826;53.572;10.170;2022-11-23T04:03:46;34.92;;;15.13;;
46090;SDS011;31826;53.572;10.170;2022-11-23T04:06:11;37.15;;;15.50;;
46090;SDS011;31826;53.572;10.170;2022-11-23T04:08:37;34.10;;;14.97;;
46090;SDS011;31826;53.572;10.170;2022-11-23T04:11:03;33.23;;;15.20;;
46090;SDS011;31826;53.572;10.170;2022-11-23T04:13:28;36.87;;;14.90;;
46090;SDS011;31826;53.572;10.170;2022-11-23T04:15:54;35.93;;;15.00;;
46090;SDS011;31826;53.572;10.170;2022-11-23T04:18:20;35.10;;;15.60;;
46090;SDS011;31826;53.572;10.170;2022-11-23T04:20:45;35.83;;;14.30;;
46090;SDS011;31826;53.572;10.170;2022-11-23T04:23:11;30.33;;;13.65;;
46090;SDS011;31826;53.572;10.170;2022-11-23T04:25:37;35.60;;;14.10;;
46090;SDS011;31826;53.572;10.170;2022-11-23T04:28:02;35.97;;;14.63;;
46090;SDS011;31826;53.572;10.170;2022-11-23T04:30:28;34.95;;;14.25;;
46090;SDS011;31826;53.572;10.170;2022-11-23T04:32:54;33.50;;;13.40;;
46090;SDS011;31826;53.572;10.170;2022-11-23T04:35:20;33.35;;;13.73;;
46090;SDS011;31826;53.572;10.170;2022-11-23T04:37:46;29.60;;;13.10;;
46090;SDS011;31826;53.572;10.170;2022-11-23T04:40:12;32.25;;;13.32;;
46090;SDS011;31826;53.572;10.170;2022-11-23T04:42:38;31.98;;;12.63;;
46090;SDS011;31826;53.572;10.170;2022-11-23T04:45:04;32.03;;;13.63;;
46090;SDS011;31826;53.572;10.170;2022-11-23T04:47:30;29.15;;;13.98;;
46090;SDS011;31826;53.572;10.170;2022-11-23T04:49:56;29.23;;;13.13;;
46090;SDS011;31826;53.572;10.170;2022-11-23T04:52:22;31.83;;;13.17;;
46090;SDS011;31826;53.572;10.170;2022-11-23T04:54:47;30.30;;;13.47;;
46090;SDS011;31826;53.572;10.170;2022-11-23T04:57:13;33.17;;;12.77;;
46090;SDS011;31826;53.572;10.170;2022-11-23T04:59:39;31.13;;;12.48;;
46090;SDS011;31826;53.572;10.170;2022-11-23T05:02:05;30.17;;;13.18;;
46090;SDS011;31826;53.572;10.170;2022-11-23T05:04:32;28.65;;;12.65;;
46090;SDS011;31826;53.572;10.170;2022-11-23T05:06:58;31.15;;;13.27;;
46090;SDS011;31826;53.572;10.170;2022-11-23T05:09:24;32.77;;;14.10;;
46090;SDS011;31826;53.572;10.170;2022-11-23T05:11:50;29.33;;;12.40;;
46090;SDS011;31826;53.572;10.170;2022-11-23T05:14:15;30.20;;;12.53;;
46090;SDS011;31826;53.572;10.170;2022-11-23T05:16:41;31.57;;;13.27;;
46090;SDS011;31826;53.572;10.170;2022-11-23T05:19:07;30.93;;;12.53;;
46090;SDS011;31826;53.572;10.170;2022-11-23T05:21:33;27.83;;;12.55;;
46090;SDS011;31826;53.572;10.170;2022-11-23T05:23:58;28.25;;;12.73;;
46090;SDS011;31826;53.572;10.170;2022-11-23T05:26:24;30.03;;;13.23;;
46090;SDS011;31826;53.572;10.170;2022-11-23T05:28:50;28.33;;;12.47;;
46090;SDS011;31826;53.572;10.170;2022-11-23T05:31:15;27.17;;;11.70;;
46090;SDS011;31826;53.572;10.170;2022-11-23T05:33:41;27.87;;;11.80;;
46090;SDS011;31826;53.572;10.170;2022-11-23T05:36:07;30.87;;;11.93;;
46090;SDS011;31826;53.572;10.170;2022-11-23T05:38:33;25.55;;;11.68;;
46090;SDS011;31826;53.572;10.170;2022-11-23T05:40:59;26.95;;;12.40;;
46090;SDS011;31826;53.572;10.170;2022-11-23T05:43:25;31.17;;;12.73;;
46090;SDS011;31826;53.572;10.170;2022-11-23T05:45:50;26.13;;;12.95;;
46090;SDS011;31826;53.572;10.170;2022-11-23T05:48:16;27.35;;;11.93;;
46090;SDS011;31826;53.572;10.170;2022-11-23T05:50:42;26.40;;;11.80;;
46090;SDS011;31826;53.572;10.170;2022-11-23T05:53:08;26.52;;;11.65;;
46090;SDS011;31826;53.572;10.170;2022-11-23T05:55:34;26.00;;;11.38;;
46090;SDS011;31826;53.572;10.170;2022-11-23T05:58:00;30.53;;;12.73;;
46090;SDS011;31826;53.572;10.170;2022-11-23T06:00:26;29.87;;;13.37;;
46090;SDS011;31826;53.572;10.170;2022-11-23T06:02:51;28.63;;;12.97;;
46090;SDS011;31826;53.572;10.170;2022-11-23T06:05:22;25.90;;;11.82;;
46090;SDS011;31826;53.572;10.170;2022-11-23T06:07:50;29.07;;;12.10;;
46090;SDS011;31826;53.572;10.170;2022-11-23T06:10:17;33.83;;;13.23;;
46090;SDS011;31826;53.572;10.170;2022-11-23T06:12:42;30.40;;;12.40;;
46090;SDS011;31826;53.572;10.170;2022-11-23T06:15:09;30.98;;;13.18;;
46090;SDS011;31826;53.572;10.170;2022-11-23T06:17:35;29.17;;;13.00;;
46090;SDS011;31826;53.572;10.170;2022-11-23T06:20:02;32.55;;;13.75;;
46090;SDS011;31826;53.572;10.170;2022-11-23T06:22:31;31.90;;;13.77;;
46090;SDS011;31826;53.572;10.170;2022-11-23T06:24:57;35.20;;;14.67;;
46090;SDS011;31826;53.572;10.170;2022-11-23T06:27:23;29.40;;;13.90;;
46090;SDS011;31826;53.572;10.170;2022-11-23T06:29:48;33.97;;;14.10;;
46090;SDS011;31826;53.572;10.170;2022-11-23T06:32:14;32.97;;;13.10;;
46090;SDS011;31826;53.572;10.170;2022-11-23T06:34:40;28.67;;;12.53;;
46090;SDS011;31826;53.572;10.170;2022-11-23T06:37:06;34.47;;;13.07;;
46090;SDS011;31826;53.572;10.170;2022-11-23T06:39:32;32.90;;;13.65;;
46090;SDS011;31826;53.572;10.170;2022-11-23T06:41:57;33.20;;;13.30;;
46090;SDS011;31826;53.572;10.170;2022-11-23T06:44:23;31.85;;;13.15;;
46090;SDS011;31826;53.572;10.170;2022-11-23T06:46:49;28.52;;;13.50;;
46090;SDS011;31826;53.572;10.170;2022-11-23T06:49:15;37.33;;;13.13;;
46090;SDS011;31826;53.572;10.170;2022-11-23T06:51:43;30.50;;;12.35;;
46090;SDS011;31826;53.572;10.170;2022-11-23T06:54:10;26.95;;;11.95;;
46090;SDS011;31826;53.572;10.170;2022-11-23T06:56:36;31.50;;;12.98;;
46090;SDS011;31826;53.572;10.170;2022-11-23T06:59:02;28.50;;;12.18;;
46090;SDS011;31826;53.572;10.170;2022-11-23T07:01:28;29.50;;;12.38;;
46090;SDS011;31826;53.572;10.170;2022-11-23T07:03:54;33.70;;;12.98;;
46090;SDS011;31826;53.572;10.170;2022-11-23T07:06:20;32.95;;;13.35;;
46090;SDS011;31826;53.572;10.170;2022-11-23T07:08:46;31.75;;;12.82;;
46090;SDS011;31826;53.572;10.170;2022-11-23T07:11:12;34.42;;;13.00;;
46090;SDS011;31826;53.572;10.170;2022-11-23T07:13:38;75.67;;;38.13;;
46090;SDS011;31826;53.572;10.170;2022-11-23T07:16:04;33.33;;;14.25;;
46090;SDS011;31826;53.572;10.170;2022-11-23T07:18:31;29.75;;;13.32;;
46090;SDS011;31826;53.572;10.170;2022-11-23T07:20:57;31.30;;;13.65;;
46090;SDS011;31826;53.572;10.170;2022-11-23T07:23:23;31.27;;;13.65;;
46090;SDS011;31826;53.572;10.170;2022-11-23T07:25:50;29.08;;;13.82;;
46090;SDS011;31826;53.572;10.170;2022-11-23T07:28:15;34.03;;;14.00;;
46090;SDS011;31826;53.572;10.170;2022-11-23T07:30:42;34.33;;;14.90;;
46090;SDS011;31826;53.572;10.170;2022-11-23T07:33:09;29.20;;;13.48;;
46090;SDS011;31826;53.572;10.170;2022-11-23T07:35:36;28.75;;;11.95;;
46090;SDS011;31826;53.572;10.170;2022-11-23T07:38:03;26.38;;;11.88;;
46090;SDS011;31826;53.572;10.170;2022-11-23T07:40:32;27.30;;;11.65;;
46090;SDS011;31826;53.572;10.170;2022-11-23T07:42:59;27.93;;;11.97;;
46090;SDS011;31826;53.572;10.170;2022-11-23T07:45:25;28.05;;;12.02;;
46090;SDS011;31826;53.572;10.170;2022-11-23T07:48:05;26.23;;;12.20;;
46090;SDS011;31826;53.572;10.170;2022-11-23T07:50:33;25.90;;;12.13;;
46090;SDS011;31826;53.572;10.170;2022-11-23T07:53:00;28.02;;;12.27;;
46090;SDS011;31826;53.572;10.170;2022-11-23T07:55:27;29.27;;;12.07;;
46090;SDS011;31826;53.572;10.170;2022-11-23T07:57:54;29.27;;;11.80;;
46090;SDS011;31826;53.572;10.170;2022-11-23T08:00:21;24.15;;;11.27;;
46090;SDS011;31826;53.572;10.170;2022-11-23T08:02:48;30.03;;;11.93;;
46090;SDS011;31826;53.572;10.170;2022-11-23T08:05:14;25.47;;;10.73;;
46090;SDS011;31826;53.572;10.170;2022-11-23T08:07:40;26.95;;;10.45;;
46090;SDS011;31826;53.572;10.170;2022-11-23T08:10:06;25.83;;;10.75;;
46090;SDS011;31826;53.572;10.170;2022-11-23T08:12:32;28.17;;;10.55;;
46090;SDS011;31826;53.572;10.170;2022-11-23T08:14:58;24.35;;;10.57;;
46090;SDS011;31826;53.572;10.170;2022-11-23T08:17:24;25.30;;;10.63;;
46090;SDS011;31826;53.572;10.170;2022-11-23T08:19:49;27.90;;;10.18;;
46090;SDS011;31826;53.572;10.170;2022-11-23T08:22:15;27.35;;;11.63;;
46090;SDS011;31826;53.572;10.170;2022-11-23T08:24:41;25.52;;;11.48;;
46090;SDS011;31826;53.572;10.170;2022-11-23T08:27:06;26.25;;;11.60;;
46090;SDS011;31826;53.572;10.170;2022-11-23T08:29:32;26.00;;;10.55;;
46090;SDS011;31826;53.572;10.170;2022-11-23T08:31:58;27.20;;;10.65;;
46090;SDS011;31826;53.572;10.170;2022-11-23T08:34:23;26.53;;;10.47;;
46090;SDS011;31826;53.572;10.170;2022-11-23T08:36:49;30.57;;;12.03;;
46090;SDS011;31826;53.572;10.170;2022-11-23T08:39:15;33.97;;;13.90;;
46090;SDS011;31826;53.572;10.170;2022-11-23T08:41:42;34.73;;;14.93;;
46090;SDS011;31826;53.572;10.170;2022-11-23T08:44:07;34.73;;;15.77;;
46090;SDS011;31826;53.572;10.170;2022-11-23T08:46:35;33.10;;;15.43;;
46090;SDS011;31826;53.572;10.170;2022-11-23T08:49:01;23.83;;;10.43;;
46090;SDS011;31826;53.572;10.170;2022-11-23T08:51:27;22.85;;;8.95;;
46090;SDS011;31826;53.572;10.170;2022-11-23T08:53:53;20.25;;;8.73;;
46090;SDS011;31826;53.572;10.170;2022-11-23T08:56:19;21.13;;;8.90;;
46090;SDS011;31826;53.572;10.170;2022-11-23T08:58:46;22.20;;;9.50;;
46090;SDS011;31826;53.572;10.170;2022-11-23T09:01:12;20.00;;;9.50;;
46090;SDS011;31826;53.572;10.170;2022-11-23T09:03:39;20.05;;;8.55;;
46090;SDS011;31826;53.572;10.170;2022-11-23T09:06:05;20.20;;;8.77;;
46090;SDS011;31826;53.572;10.170;2022-11-23T09:08:31;20.63;;;8.57;;
46090;SDS011;31826;53.572;10.170;2022-11-23T09:11:00;18.70;;;8.27;;
46090;SDS011;31826;53.572;10.170;2022-11-23T09:13:27;18.05;;;7.65;;
46090;SDS011;31826;53.572;10.170;2022-11-23T09:15:59;20.58;;;7.63;;
46090;SDS011;31826;53.572;10.170;2022-11-23T09:18:26;25.17;;;8.27;;
46090;SDS011;31826;53.572;10.170;2022-11-23T09:20:54;19.20;;;7.95;;
46090;SDS011;31826;53.572;10.170;2022-11-23T09:23:21;20.33;;;8.68;;
46090;SDS011;31826;53.572;10.170;2022-11-23T09:25:47;19.52;;;7.50;;
46090;SDS011;31826;53.572;10.170;2022-11-23T09:28:14;16.88;;;7.40;;
46090;SDS011;31826;53.572;10.170;2022-11-23T09:30:43;21.25;;;7.70;;
46090;SDS011;31826;53.572;10.170;2022-11-23T09:33:11;20.58;;;7.63;;
46090;SDS011;31826;53.572;10.170;2022-11-23T09:35:36;21.30;;;9.17;;
46090;SDS011;31826;53.572;10.170;2022-11-23T09:38:02;19.70;;;8.50;;
46090;SDS011;31826;53.572;10.170;2022-11-23T09:40:29;18.23;;;8.00;;
46090;SDS011;31826;53.572;10.170;2022-11-23T09:45:55;20.08;;;8.63;;
46090;SDS011;31826;53.572;10.170;2022-11-23T09:48:29;22.95;;;9.05;;
46090;SDS011;31826;53.572;10.170;2022-11-23T09:51:13;14.53;;;6.83;;
46090;SDS011;31826;53.572;10.170;2022-11-23T09:53:43;16.38;;;7.13;;
46090;SDS011;31826;53.572;10.170;2022-11-23T09:56:36;16.83;;;7.60;;
46090;SDS011;31826;53.572;10.170;2022-11-23T09:59:10;15.50;;;5.93;;
46090;SDS011;31826;53.572;10.170;2022-11-23T10:01:42;14.02;;;5.57;;
46090;SDS011;31826;53.572;10.170;2022-11-23T10:04:16;15.55;;;5.20;;
46090;SDS011;31826;53.572;10.170;2022-11-23T10:06:44;16.25;;;5.30;;
46090;SDS011;31826;53.572;10.170;2022-11-23T10:09:29;12.32;;;5.07;;
46090;SDS011;31826;53.572;10.170;2022-11-23T10:12:05;17.45;;;6.18;;
46090;SDS011;31826;53.572;10.170;2022-11-23T10:14:54;12.93;;;5.20;;
46090;SDS011;31826;53.572;10.170;2022-11-23T10:23:12;14.85;;;5.20;;
46090;SDS011;31826;53.572;10.170;2022-11-23T10:25:51;12.05;;;4.22;;
46090;SDS011;31826;53.572;10.170;2022-11-23T10:28:19;11.00;;;4.30;;
46090;SDS011;31826;53.572;10.170;2022-11-23T10:36:19;12.43;;;5.32;;
46090;SDS011;31826;53.572;10.170;2022-11-23T10:38:46;11.93;;;4.55;;
46090;SDS011;31826;53.572;10.170;2022-11-23T10:41:16;13.02;;;4.53;;
46090;SDS011;31826;53.572;10.170;2022-11-23T10:43:50;13.05;;;4.63;;
46090;SDS011;31826;53.572;10.170;2022-11-23T10:51:35;14.45;;;5.18;;
46090;SDS011;31826;53.572;10.170;2022-11-23T10:54:03;16.15;;;5.72;;
46090;SDS011;31826;53.572;10.170;2022-11-23T10:56:30;11.13;;;4.72;;
46090;SDS011;31826;53.572;10.170;2022-11-23T10:58:58;10.18;;;4.07;;
46090;SDS011;31826;53.572;10.170;2022-11-23T11:01:24;12.40;;;4.97;;
46090;SDS011;31826;53.572;10.170;2022-11-23T11:03:51;14.45;;;5.13;;
46090;SDS011;31826;53.572;10.170;2022-11-23T11:06:22;13.73;;;5.13;;
46090;SDS011;31826;53.572;10.170;2022-11-23T11:09:02;13.57;;;5.57;;
46090;SDS011;31826;53.572;10.170;2022-11-23T11:11:30;12.50;;;5.55;;
46090;SDS011;31826;53.572;10.170;2022-11-23T11:16:48;13.82;;;5.82;;
46090;SDS011;31826;53.572;10.170;2022-11-23T11:21:55;12.73;;;5.13;;
46090;SDS011;31826;53.572;10.170;2022-11-23T11:27:14;13.50;;;5.68;;
46090;SDS011;31826;53.572;10.170;2022-11-23T11:35:10;12.10;;;5.10;;
46090;SDS011;31826;53.572;10.170;2022-11-23T11:37:43;17.40;;;6.43;;
46090;SDS011;31826;53.572;10.170;2022-11-23T11:43:01;16.70;;;6.05;;
46090;SDS011;31826;53.572;10.170;2022-11-23T11:45:39;16.83;;;6.47;;
46090;SDS011;31826;53.572;10.170;2022-11-23T11:50:43;17.03;;;6.37;;
46090;SDS011;31826;53.572;10.170;2022-11-23T11:53:24;13.95;;;5.28;;
46090;SDS011;31826;53.572;10.170;2022-11-23T11:55:59;15.65;;;6.47;;
46090;SDS011;31826;53.572;10.170;2022-11-23T11:58:30;16.02;;;5.72;;
46090;SDS011;31826;53.572;10.170;2022-11-23T12:01:06;16.35;;;6.10;;
46090;SDS011;31826;53.572;10.170;2022-11-23T12:03:58;12.27;;;5.85;;
46090;SDS011;31826;53.572;10.170;2022-11-23T12:06:32;17.52;;;6.00;;
46090;SDS011;31826;53.572;10.170;2022-11-23T12:09:06;14.38;;;5.70;;
46090;SDS011;31826;53.572;10.170;2022-11-23T12:11:40;16.00;;;6.05;;
46090;SDS011;31826;53.572;10.170;2022-11-23T12:14:10;12.15;;;5.25;;
46090;SDS011;31826;53.572;10.170;2022-11-23T12:24:58;13.65;;;5.65;;
46090;SDS011;31826;53.572;10.170;2022-11-23T12:27:55;14.68;;;6.13;;
46090;SDS011;31826;53.572;10.170;2022-11-23T12:30:45;14.73;;;5.00;;
46090;SDS011;31826;53.572;10.170;2022-11-23T12:33:21;10.88;;;4.47;;
46090;SDS011;31826;53.572;10.170;2022-11-23T12:41:23;9.05;;;3.55;;
46090;SDS011;31826;53.572;10.170;2022-11-23T13:00:05;10.13;;;3.92;;
46090;SDS011;31826;53.572;10.170;2022-11-23T13:02:52;9.00;;;3.65;;
46090;SDS011;31826;53.572;10.170;2022-11-23T13:05:43;10.55;;;3.70;;
46090;SDS011;31826;53.572;10.170;2022-11-23T13:08:15;13.20;;;4.15;;
46090;SDS011;31826;53.572;10.170;2022-11-23T13:11:10;9.55;;;4.03;;
46090;SDS011;31826;53.572;10.170;2022-11-23T13:14:01;11.30;;;4.05;;
46090;SDS011;31826;53.572;10.170;2022-11-23T13:16:55;11.40;;;4.47;;
46090;SDS011;31826;53.572;10.170;2022-11-23T13:22:32;9.88;;;3.60;;
46090;SDS011;31826;53.572;10.170;2022-11-23T13:25:13;8.88;;;3.65;;
46090;SDS011;31826;53.572;10.170;2022-11-23T13:27:43;8.70;;;4.00;;
46090;SDS011;31826;53.572;10.170;2022-11-23T13:33:11;9.17;;;3.47;;
46090;SDS011;31826;53.572;10.170;2022-11-23T13:40:39;8.20;;;3.72;;
46090;SDS011;31826;53.572;10.170;2022-11-23T13:43:20;8.65;;;3.60;;
46090;SDS011;31826;53.572;10.170;2022-11-23T13:46:07;10.23;;;3.70;;
46090;SDS011;31826;53.572;10.170;2022-11-23T13:48:53;11.35;;;3.58;;
46090;SDS011;31826;53.572;10.170;2022-11-23T13:51:25;9.15;;;3.42;;
46090;SDS011;31826;53.572;10.170;2022-11-23T13:54:14;9.90;;;3.95;;
46090;SDS011;31826;53.572;10.170;2022-11-23T13:56:55;10.37;;;3.67;;
46090;SDS011;31826;53.572;10.170;2022-11-23T13:59:31;9.27;;;3.55;;
46090;SDS011;31826;53.572;10.170;2022-11-23T14:02:21;9.35;;;3.60;;
46090;SDS011;31826;53.572;10.170;2022-11-23T14:04:49;8.63;;;3.95;;
46090;SDS011;31826;53.572;10.170;2022-11-23T14:10:17;12.43;;;4.68;;
46090;SDS011;31826;53.572;10.170;2022-11-23T14:12:53;13.63;;;5.78;;
46090;SDS011;31826;53.572;10.170;2022-11-23T14:15:29;16.17;;;4.85;;
46090;SDS011;31826;53.572;10.170;2022-11-23T14:35:21;12.97;;;5.30;;
46090;SDS011;31826;53.572;10.170;2022-11-23T14:43:34;18.37;;;7.53;;
46090;SDS011;31826;53.572;10.170;2022-11-23T14:46:04;18.75;;;7.15;;
46090;SDS011;31826;53.572;10.170;2022-11-23T14:48:37;20.85;;;7.20;;
46090;SDS011;31826;53.572;10.170;2022-11-23T14:51:04;19.43;;;6.97;;
46090;SDS011;31826;53.572;10.170;2022-11-23T14:53:38;17.57;;;7.00;;
46090;SDS011;31826;53.572;10.170;2022-11-23T14:56:05;17.13;;;6.28;;
46090;SDS011;31826;53.572;10.170;2022-11-23T14:59:41;14.95;;;5.70;;
46090;SDS011;31826;53.572;10.170;2022-11-23T15:01:50;13.73;;;5.85;;
46090;SDS011;31826;53.572;10.170;2022-11-23T15:04:24;16.85;;;10.07;;
46090;SDS011;31826;53.572;10.170;2022-11-23T15:06:50;17.80;;;9.43;;
46090;SDS011;31826;53.572;10.170;2022-11-23T15:12:24;13.20;;;5.35;;
46090;SDS011;31826;53.572;10.170;2022-11-23T15:14:51;14.35;;;5.75;;
46090;SDS011;31826;53.572;10.170;2022-11-23T15:17:21;13.38;;;5.47;;
46090;SDS011;31826;53.572;10.170;2022-11-23T15:20:00;14.70;;;5.72;;
46090;SDS011;31826;53.572;10.170;2022-11-23T15:22:28;16.02;;;6.68;;
46090;SDS011;31826;53.572;10.170;2022-11-23T15:25:03;14.15;;;5.55;;
46090;SDS011;31826;53.572;10.170;2022-11-23T15:27:35;16.67;;;7.07;;
46090;SDS011;31826;53.572;10.170;2022-11-23T15:30:12;14.68;;;5.55;;
46090;SDS011;31826;53.572;10.170;2022-11-23T15:35:29;13.13;;;6.40;;
46090;SDS011;31826;53.572;10.170;2022-11-23T15:37:57;15.63;;;5.63;;
46090;SDS011;31826;53.572;10.170;2022-11-23T15:40:24;13.70;;;6.25;;
46090;SDS011;31826;53.572;10.170;2022-11-23T15:43:00;15.18;;;6.22;;
46090;SDS011;31826;53.572;10.170;2022-11-23T15:48:04;12.10;;;5.45;;
46090;SDS011;31826;53.572;10.170;2022-11-23T15:50:42;15.07;;;6.45;;
46090;SDS011;31826;53.572;10.170;2022-11-23T15:53:16;15.18;;;5.55;;
46090;SDS011;31826;53.572;10.170;2022-11-23T15:55:43;13.68;;;6.00;;
46090;SDS011;31826;53.572;10.170;2022-11-23T15:58:09;15.60;;;5.60;;
46090;SDS011;31826;53.572;10.170;2022-11-23T16:00:45;15.98;;;6.13;;
46090;SDS011;31826;53.572;10.170;2022-11-23T16:04:00;13.60;;;5.30;;
46090;SDS011;31826;53.572;10.170;2022-11-23T16:06:17;13.25;;;5.80;;
46090;SDS011;31826;53.572;10.170;2022-11-23T16:08:52;15.77;;;7.15;;
46090;SDS011;31826;53.572;10.170;2022-11-23T16:11:19;13.00;;;6.90;;
46090;SDS011;31826;53.572;10.170;2022-11-23T16:13:47;17.30;;;6.10;;
46090;SDS011;31826;53.572;10.170;2022-11-23T16:16:17;15.37;;;6.67;;
46090;SDS011;31826;53.572;10.170;2022-11-23T16:18:46;18.77;;;6.70;;
46090;SDS011;31826;53.572;10.170;2022-11-23T16:21:17;13.05;;;5.93;;
46090;SDS011;31826;53.572;10.170;2022-11-23T16:26:15;16.45;;;7.18;;